createdAt,value
2023-03-29T00:00:09.583Z,99.90
2023-03-29T00:02:39.815Z,99.90
2023-03-29T00:05:10.622Z,99.90
2023-03-29T00:07:38.497Z,99.90
2023-03-29T00:10:07.575Z,99.90
2023-03-29T00:12:35.479Z,99.90
2023-03-29T00:15:03.515Z,99.90
2023-03-29T00:17:31.894Z,99.90
2023-03-29T00:20:00.157Z,99.90
2023-03-29T00:22:29.289Z,99.90
2023-03-29T00:24:57.041Z,99.90
2023-03-29T00:27:24.867Z,99.90
2023-03-29T00:29:52.643Z,99.90
2023-03-29T00:32:20.554Z,99.90
2023-03-29T00:34:50.721Z,99.90
2023-03-29T00:37:18.813Z,99.90
2023-03-29T00:39:48.265Z,99.90
2023-03-29T00:42:17.874Z,99.90
2023-03-29T00:45:07.088Z,99.90
2023-03-29T00:47:41.490Z,99.90
2023-03-29T00:50:15.811Z,99.90
2023-03-29T00:52:49.040Z,99.90
2023-03-29T00:55:22.767Z,99.90
2023-03-29T00:57:52.239Z,99.90
2023-03-29T01:00:22.997Z,99.90
2023-03-29T01:02:55.085Z,99.90
2023-03-29T01:05:29.532Z,99.90
2023-03-29T01:08:01.871Z,99.90
2023-03-29T01:10:36.769Z,99.90
2023-03-29T01:13:09.468Z,99.90
2023-03-29T01:15:39.621Z,99.90
2023-03-29T01:18:08.791Z,99.90
2023-03-29T01:20:51.958Z,99.90
2023-03-29T01:23:38.142Z,99.90
2023-03-29T01:26:15.835Z,99.90
2023-03-29T01:28:48.554Z,99.90
2023-03-29T01:31:22.535Z,99.90
2023-03-29T01:33:53.986Z,99.90
2023-03-29T01:36:27.151Z,99.90
2023-03-29T01:38:57.917Z,99.90
2023-03-29T01:41:36.721Z,99.90
2023-03-29T01:44:08.103Z,99.90
2023-03-29T01:46:40.964Z,99.90
2023-03-29T01:49:13.845Z,99.90
2023-03-29T01:51:46.910Z,99.90
2023-03-29T01:54:19.688Z,99.90
2023-03-29T01:56:50.503Z,99.90
2023-03-29T01:59:26.185Z,99.90
2023-03-29T02:02:00.326Z,99.90
2023-03-29T02:04:31.730Z,99.90
2023-03-29T02:07:02.684Z,99.90
2023-03-29T02:09:33.332Z,99.90
2023-03-29T02:12:06.887Z,99.90
2023-03-29T02:14:36.433Z,99.90
2023-03-29T02:17:18.412Z,99.90
2023-03-29T02:19:51.220Z,99.90
2023-03-29T02:22:24.898Z,99.90
2023-03-29T02:24:59.003Z,99.90
2023-03-29T02:27:29.097Z,99.90
2023-03-29T02:29:59.839Z,99.90
2023-03-29T02:32:33.097Z,99.90
2023-03-29T02:35:06.587Z,99.90
2023-03-29T02:37:37.145Z,99.90
2023-03-29T02:40:07.902Z,99.90
2023-03-29T02:42:37.829Z,99.90
2023-03-29T02:45:09.578Z,99.90
2023-03-29T02:47:42.298Z,99.90
2023-03-29T02:50:10.701Z,99.90
2023-03-29T02:52:42.580Z,99.90
2023-03-29T02:55:16.844Z,99.90
2023-03-29T02:57:44.796Z,99.90
2023-03-29T03:00:20.141Z,99.90
2023-03-29T03:02:50.815Z,99.90
2023-03-29T03:05:19.382Z,99.90
2023-03-29T03:07:47.663Z,99.90
2023-03-29T03:10:15.934Z,99.90
2023-03-29T03:12:43.874Z,99.90
2023-03-29T03:15:13.400Z,99.90
2023-03-29T03:17:42.955Z,99.90
2023-03-29T03:20:13.718Z,99.90
2023-03-29T03:22:43.966Z,99.90
2023-03-29T03:25:11.945Z,99.90
2023-03-29T03:27:40.164Z,99.90
2023-03-29T03:30:09.482Z,99.90
2023-03-29T03:32:57.397Z,99.90
2023-03-29T03:35:57.007Z,99.90
2023-03-29T03:38:25.440Z,99.90
2023-03-29T03:40:58.529Z,99.90
2023-03-29T03:43:28.176Z,99.90
2023-03-29T03:45:57.387Z,99.90
2023-03-29T03:48:27.958Z,99.90
2023-03-29T03:51:17.658Z,99.90
2023-03-29T03:53:45.905Z,99.90
2023-03-29T03:56:14.407Z,99.90
2023-03-29T03:59:01.120Z,99.90
2023-03-29T04:01:32.088Z,99.90
2023-03-29T04:04:08.347Z,99.90
2023-03-29T04:06:36.412Z,99.90
2023-03-29T04:09:23.307Z,99.90
2023-03-29T04:12:04.533Z,99.90
2023-03-29T04:14:32.711Z,99.90
2023-03-29T04:17:05.670Z,99.90
2023-03-29T04:19:51.979Z,99.90
2023-03-29T04:22:20.591Z,99.90
2023-03-29T04:24:49.441Z,99.90
2023-03-29T04:27:47.088Z,99.90
2023-03-29T04:30:33.771Z,99.90
2023-03-29T04:33:14.329Z,99.90
2023-03-29T04:35:47.097Z,99.90
2023-03-29T04:38:17.604Z,99.90
2023-03-29T04:40:48.440Z,99.90
2023-03-29T04:43:34.923Z,99.90
2023-03-29T04:46:13.209Z,99.90
2023-03-29T04:48:57.412Z,99.90
2023-03-29T04:51:35.773Z,99.90
2023-03-29T04:54:03.884Z,99.90
2023-03-29T04:56:37.966Z,99.90
2023-03-29T04:59:22.163Z,99.90
2023-03-29T05:01:50.144Z,99.90
2023-03-29T05:04:18.397Z,99.90
2023-03-29T05:07:03.021Z,99.90
2023-03-29T05:09:31.665Z,99.90
2023-03-29T05:12:01.882Z,99.90
2023-03-29T05:14:35.158Z,99.90
2023-03-29T05:17:05.274Z,99.90
2023-03-29T05:19:36.333Z,99.90
2023-03-29T05:22:05.708Z,99.90
2023-03-29T05:24:33.954Z,99.90
2023-03-29T05:27:07.407Z,99.90
2023-03-29T05:29:37.503Z,99.90
2023-03-29T05:32:23.944Z,99.90
2023-03-29T05:34:52.877Z,99.90
2023-03-29T05:37:23.148Z,99.90
2023-03-29T05:40:05.577Z,99.90
2023-03-29T05:42:38.642Z,99.90
2023-03-29T05:45:10.534Z,99.90
2023-03-29T05:47:38.411Z,99.90
2023-03-29T05:50:10.225Z,99.90
2023-03-29T05:52:41.083Z,99.90
2023-03-29T05:55:10.310Z,99.90
2023-03-29T05:57:38.388Z,99.90
2023-03-29T06:00:15.962Z,99.90
2023-03-29T06:02:43.987Z,99.90
2023-03-29T06:05:11.943Z,99.90
2023-03-29T06:07:56.593Z,99.90
2023-03-29T06:10:27.688Z,99.90
2023-03-29T06:13:07.115Z,99.90
2023-03-29T06:15:36.009Z,99.90
2023-03-29T06:18:07.070Z,99.90
2023-03-29T06:20:36.658Z,99.90
2023-03-29T06:23:11.771Z,99.90
2023-03-29T06:25:39.585Z,99.90
2023-03-29T06:28:08.396Z,99.90
2023-03-29T06:30:36.730Z,99.90
2023-03-29T06:33:06.393Z,99.90
2023-03-29T06:35:50.130Z,99.90
2023-03-29T06:38:24.631Z,99.90
2023-03-29T06:41:18.334Z,99.90
2023-03-29T06:43:57.797Z,99.90
2023-03-29T06:46:32.695Z,99.90
2023-03-29T06:49:06.184Z,99.90
2023-03-29T06:51:42.842Z,99.90
2023-03-29T06:54:12.591Z,99.90
2023-03-29T06:56:49.181Z,99.90
2023-03-29T06:59:19.016Z,99.90
2023-03-29T07:01:55.464Z,99.90
2023-03-29T07:04:35.156Z,99.90
2023-03-29T07:07:20.215Z,99.90
2023-03-29T07:09:55.538Z,99.90
2023-03-29T07:12:44.631Z,99.90
2023-03-29T07:15:13.755Z,99.90
2023-03-29T07:18:05.414Z,99.90
2023-03-29T07:20:34.694Z,99.90
2023-03-29T07:23:09.507Z,99.90
2023-03-29T07:25:39.300Z,99.90
2023-03-29T07:28:09.156Z,99.90
2023-03-29T07:30:37.266Z,99.90
2023-03-29T07:33:20.230Z,99.60
2023-03-29T07:35:55.203Z,98.50
2023-03-29T07:38:23.159Z,98.00
2023-03-29T07:41:07.575Z,97.70
2023-03-29T07:43:51.789Z,96.80
2023-03-29T07:46:24.939Z,96.50
2023-03-29T07:48:53.118Z,95.90
2023-03-29T07:51:21.509Z,94.90
2023-03-29T07:53:51.123Z,93.70
2023-03-29T07:56:39.459Z,92.70
2023-03-29T07:59:20.720Z,92.00
2023-03-29T08:01:56.658Z,91.80
2023-03-29T08:04:32.508Z,91.30
2023-03-29T08:07:38.375Z,90.30
2023-03-29T08:10:25.624Z,90.10
2023-03-29T08:13:10.200Z,90.00
2023-03-29T08:16:08.857Z,87.90
2023-03-29T08:18:41.600Z,87.60
2023-03-29T08:21:09.988Z,86.60
2023-03-29T08:23:38.283Z,85.40
2023-03-29T08:26:26.719Z,83.30
2023-03-29T08:28:57.368Z,81.30
2023-03-29T08:31:28.235Z,80.10
2023-03-29T08:33:56.531Z,79.60
2023-03-29T08:36:47.572Z,79.30
2023-03-29T08:39:25.479Z,78.50
2023-03-29T08:42:22.390Z,76.20
2023-03-29T08:45:03.347Z,76.00
2023-03-29T08:47:38.833Z,76.20
2023-03-29T08:50:14.799Z,74.80
2023-03-29T08:52:52.822Z,74.10
2023-03-29T08:55:43.614Z,73.40
2023-03-29T08:58:34.239Z,71.50
2023-03-29T09:01:08.545Z,71.10
2023-03-29T09:03:50.768Z,71.10
2023-03-29T09:06:31.785Z,70.60
2023-03-29T09:09:16.567Z,69.30
2023-03-29T09:11:56.530Z,67.90
2023-03-29T09:14:35.750Z,67.80
2023-03-29T09:17:18.039Z,65.50
2023-03-29T09:19:52.388Z,64.90
2023-03-29T09:22:28.819Z,64.80
2023-03-29T09:25:05.994Z,64.90
2023-03-29T09:27:42.599Z,65.10
2023-03-29T09:30:25.968Z,63.20
2023-03-29T09:33:06.708Z,62.20
2023-03-29T09:35:54.682Z,61.00
2023-03-29T09:38:23.528Z,61.60
2023-03-29T09:40:55.014Z,61.60
2023-03-29T09:43:31.548Z,60.80
2023-03-29T09:46:06.115Z,59.90
2023-03-29T09:48:41.921Z,59.70
2023-03-29T09:51:11.413Z,59.20
2023-03-29T09:53:40.469Z,58.70
2023-03-29T09:56:27.434Z,58.40
2023-03-29T09:59:04.904Z,58.40
2023-03-29T10:01:38.644Z,57.60
2023-03-29T10:04:10.435Z,57.60
2023-03-29T10:06:44.221Z,57.80
2023-03-29T10:09:17.455Z,58.00
2023-03-29T10:11:49.151Z,57.90
2023-03-29T10:14:19.566Z,57.50
2023-03-29T10:16:48.146Z,56.90
2023-03-29T10:19:21.174Z,56.70
2023-03-29T10:21:50.004Z,55.90
2023-03-29T10:24:20.210Z,54.40
2023-03-29T10:26:49.378Z,54.20
2023-03-29T10:29:17.623Z,54.90
2023-03-29T10:31:45.686Z,54.90
2023-03-29T10:34:16.472Z,54.60
2023-03-29T10:36:52.196Z,54.40
2023-03-29T10:39:20.365Z,54.00
2023-03-29T10:41:53.174Z,53.80
2023-03-29T10:44:31.526Z,54.00
2023-03-29T10:47:10.591Z,53.50
2023-03-29T10:49:43.432Z,53.10
2023-03-29T10:52:14.636Z,52.70
2023-03-29T10:54:42.502Z,52.70
2023-03-29T10:57:15.844Z,52.60
2023-03-29T10:59:53.489Z,52.70
2023-03-29T11:02:49.373Z,52.10
2023-03-29T11:05:28.944Z,52.80
2023-03-29T11:08:11.240Z,53.30
2023-03-29T11:10:48.130Z,53.70
2023-03-29T11:13:25.999Z,53.80
2023-03-29T11:16:06.510Z,52.90
2023-03-29T11:19:02.605Z,52.50
2023-03-29T11:21:37.389Z,52.40
2023-03-29T11:24:29.526Z,52.70
2023-03-29T11:27:14.310Z,53.30
2023-03-29T11:29:52.961Z,53.30
2023-03-29T11:32:33.307Z,53.50
2023-03-29T11:35:12.806Z,53.30
2023-03-29T11:37:48.926Z,53.00
2023-03-29T11:40:36.208Z,52.90
2023-03-29T11:43:06.974Z,52.50
2023-03-29T11:45:39.867Z,52.30
2023-03-29T11:48:13.466Z,52.40
2023-03-29T11:50:48.703Z,52.50
2023-03-29T11:53:22.480Z,51.90
2023-03-29T11:55:53.148Z,52.10
2023-03-29T11:58:24.213Z,52.20
2023-03-29T12:00:57.954Z,52.80
2023-03-29T12:03:37.048Z,52.90
2023-03-29T12:06:11.953Z,53.00
2023-03-29T12:08:45.213Z,53.10
2023-03-29T12:11:21.385Z,53.00
2023-03-29T12:13:54.455Z,53.50
2023-03-29T12:16:27.263Z,53.70
2023-03-29T12:18:57.742Z,53.90
2023-03-29T12:21:29.565Z,54.00
2023-03-29T12:23:59.140Z,53.60
2023-03-29T12:26:46.978Z,53.40
2023-03-29T12:29:29.596Z,53.40
2023-03-29T12:32:07.440Z,53.30
2023-03-29T12:34:59.726Z,53.30
2023-03-29T12:37:52.287Z,53.00
2023-03-29T12:40:43.169Z,52.60
2023-03-29T12:43:33.668Z,52.80
2023-03-29T12:46:32.120Z,52.70
2023-03-29T12:49:07.657Z,53.20
2023-03-29T12:51:37.128Z,53.40
2023-03-29T12:54:09.518Z,53.30
2023-03-29T12:56:41.601Z,53.30
2023-03-29T12:59:27.160Z,53.20
2023-03-29T13:02:01.662Z,53.10
2023-03-29T13:04:49.255Z,52.70
2023-03-29T13:07:30.688Z,53.10
2023-03-29T13:10:00.168Z,53.60
2023-03-29T13:12:32.931Z,53.80
2023-03-29T13:15:06.537Z,54.00
2023-03-29T13:17:49.561Z,54.20
2023-03-29T13:20:31.401Z,54.00
2023-03-29T13:23:12.580Z,52.60
2023-03-29T13:25:58.634Z,52.40
2023-03-29T13:28:36.636Z,51.50
2023-03-29T13:31:12.794Z,52.20
2023-03-29T13:33:57.900Z,53.30
2023-03-29T13:36:39.351Z,53.80
2023-03-29T13:39:08.255Z,54.30
2023-03-29T13:41:48.234Z,54.80
2023-03-29T13:44:27.136Z,55.10
2023-03-29T13:47:13.276Z,55.60
2023-03-29T13:49:44.598Z,55.90
2023-03-29T13:52:16.629Z,56.80
2023-03-29T13:54:51.808Z,57.10
2023-03-29T13:57:22.355Z,57.20
2023-03-29T14:00:00.503Z,56.90
2023-03-29T14:02:42.524Z,57.20
2023-03-29T14:05:14.072Z,58.40
2023-03-29T14:07:47.045Z,59.60
2023-03-29T14:10:17.896Z,61.70
2023-03-29T14:12:46.948Z,62.40
2023-03-29T14:15:24.673Z,63.20
2023-03-29T14:18:00.816Z,63.70
2023-03-29T14:20:29.536Z,62.20
2023-03-29T14:22:57.355Z,62.40
2023-03-29T14:25:25.523Z,61.20
2023-03-29T14:27:53.295Z,62.30
2023-03-29T14:30:24.964Z,62.40
2023-03-29T14:32:53.138Z,61.30
2023-03-29T14:35:29.668Z,61.20
2023-03-29T14:37:57.962Z,60.30
2023-03-29T14:40:27.589Z,59.70
2023-03-29T14:42:56.367Z,59.20
2023-03-29T14:45:24.718Z,58.10
2023-03-29T14:47:53.265Z,58.20
2023-03-29T14:50:26.170Z,58.50
2023-03-29T14:52:54.901Z,58.30
2023-03-29T14:55:24.875Z,58.30
2023-03-29T14:57:55.118Z,58.30
2023-03-29T15:00:28.229Z,58.00
2023-03-29T15:02:58.708Z,58.20
2023-03-29T15:05:38.500Z,58.40
2023-03-29T15:08:09.907Z,59.00
2023-03-29T15:10:39.020Z,58.90
2023-03-29T15:13:08.745Z,59.10
2023-03-29T15:15:39.016Z,59.50
2023-03-29T15:18:08.788Z,59.70
2023-03-29T15:20:39.986Z,60.10
2023-03-29T15:23:19.967Z,60.00
2023-03-29T15:25:51.919Z,60.10
2023-03-29T15:28:30.905Z,60.00
2023-03-29T15:33:37.080Z,59.00
2023-03-29T15:36:08.091Z,58.60
2023-03-29T15:38:43.803Z,58.30
2023-03-29T15:41:14.716Z,58.40
2023-03-29T15:43:42.752Z,58.40
2023-03-29T15:46:13.118Z,58.40
2023-03-29T15:48:41.747Z,58.60
2023-03-29T15:51:12.383Z,58.80
2023-03-29T15:53:40.412Z,59.30
2023-03-29T15:56:11.277Z,59.10
2023-03-29T15:58:39.709Z,59.20
2023-03-29T16:01:13.178Z,59.40
2023-03-29T16:03:41.628Z,59.40
2023-03-29T16:06:13.288Z,59.90
2023-03-29T16:08:41.843Z,59.80
2023-03-29T16:11:09.989Z,59.90
2023-03-29T16:13:37.836Z,60.10
2023-03-29T16:16:06.711Z,60.30
2023-03-29T16:18:35.728Z,60.70
2023-03-29T16:21:03.643Z,60.40
2023-03-29T16:23:32.868Z,60.50
2023-03-29T16:26:00.935Z,60.90
2023-03-29T16:28:29.166Z,61.40
2023-03-29T16:30:56.975Z,61.40
2023-03-29T16:33:24.841Z,61.60
2023-03-29T16:35:53.146Z,61.80
2023-03-29T16:38:21.766Z,62.00
2023-03-29T16:40:51.377Z,62.30
2023-03-29T16:43:33.575Z,62.30
2023-03-29T16:46:01.667Z,62.80
2023-03-29T16:48:29.730Z,62.90
2023-03-29T16:50:57.528Z,63.30
2023-03-29T16:53:26.998Z,63.60
2023-03-29T16:55:56.589Z,64.00
2023-03-29T16:58:24.688Z,64.10
2023-03-29T17:00:53.671Z,64.60
2023-03-29T17:03:21.885Z,64.70
2023-03-29T17:05:50.267Z,65.00
2023-03-29T17:08:18.513Z,65.40
2023-03-29T17:10:46.498Z,65.70
2023-03-29T17:13:15.707Z,66.00
2023-03-29T17:15:43.707Z,66.40
2023-03-29T17:18:12.219Z,67.30
2023-03-29T17:20:41.268Z,67.60
2023-03-29T17:23:09.736Z,68.10
2023-03-29T17:25:37.848Z,68.70
2023-03-29T17:28:05.778Z,68.70
2023-03-29T17:30:36.215Z,69.40
2023-03-29T17:33:04.842Z,69.60
2023-03-29T17:35:33.213Z,70.10
2023-03-29T17:38:01.397Z,70.40
2023-03-29T17:40:29.273Z,71.80
2023-03-29T17:42:57.203Z,71.40
2023-03-29T17:45:26.427Z,71.90
2023-03-29T17:47:55.690Z,72.60
2023-03-29T17:50:23.743Z,73.40
2023-03-29T17:52:51.720Z,73.70
2023-03-29T17:55:20.973Z,74.40
2023-03-29T17:57:50.005Z,75.00
2023-03-29T18:00:18.805Z,75.50
2023-03-29T18:02:46.878Z,76.70
2023-03-29T18:05:16.228Z,76.60
2023-03-29T18:07:44.103Z,76.80
2023-03-29T18:10:12.412Z,77.40
2023-03-29T18:12:40.227Z,77.90
2023-03-29T18:15:09.560Z,78.50
2023-03-29T18:17:37.457Z,78.90
2023-03-29T18:20:11.035Z,79.90
2023-03-29T18:22:41.338Z,79.80
2023-03-29T18:25:11.010Z,79.90
2023-03-29T18:27:39.457Z,81.10
2023-03-29T18:30:09.165Z,81.00
2023-03-29T18:32:37.174Z,81.10
2023-03-29T18:35:06.189Z,81.80
2023-03-29T18:37:34.071Z,81.60
2023-03-29T18:40:06.805Z,82.00
2023-03-29T18:42:35.816Z,82.70
2023-03-29T18:45:04.591Z,82.00
2023-03-29T18:47:32.594Z,82.90
2023-03-29T18:50:02.486Z,83.10
2023-03-29T18:52:33.535Z,83.70
2023-03-29T18:55:03.142Z,83.70
2023-03-29T18:57:31.934Z,84.00
2023-03-29T19:00:00.192Z,84.90
2023-03-29T19:02:28.933Z,86.00
2023-03-29T19:04:58.012Z,86.10
2023-03-29T19:07:26.113Z,86.80
2023-03-29T19:10:03.360Z,87.10
2023-03-29T19:12:33.743Z,88.00
2023-03-29T19:15:01.946Z,88.40
2023-03-29T19:17:30.079Z,89.50
2023-03-29T19:19:58.382Z,89.90
2023-03-29T19:22:26.654Z,90.20
2023-03-29T19:24:54.727Z,90.50
2023-03-29T19:27:22.760Z,90.80
2023-03-29T19:29:52.223Z,91.20
2023-03-29T19:32:20.420Z,91.40
2023-03-29T19:34:48.676Z,91.90
2023-03-29T19:37:17.674Z,92.40
2023-03-29T19:39:46.188Z,92.80
2023-03-29T19:42:14.306Z,92.90
2023-03-29T19:44:42.429Z,93.40
2023-03-29T19:47:11.991Z,94.10
2023-03-29T19:49:39.912Z,94.40
2023-03-29T19:52:11.040Z,94.90
2023-03-29T19:54:39.114Z,95.00
2023-03-29T19:57:09.091Z,95.10
2023-03-29T19:59:38.024Z,95.40
2023-03-29T20:02:06.560Z,96.00
2023-03-29T20:04:35.793Z,96.30
2023-03-29T20:07:04.015Z,96.90
2023-03-29T20:09:32.432Z,97.10
2023-03-29T20:12:00.851Z,97.90
2023-03-29T20:14:28.691Z,97.70
2023-03-29T20:16:56.549Z,98.20
2023-03-29T20:19:25.331Z,98.40
2023-03-29T20:21:57.731Z,98.30
2023-03-29T20:24:26.557Z,98.50
2023-03-29T20:26:54.550Z,98.60
2023-03-29T20:29:22.425Z,98.80
2023-03-29T20:31:50.423Z,98.90
2023-03-29T20:34:18.668Z,99.30
2023-03-29T20:36:46.767Z,99.50
2023-03-29T20:39:18.200Z,99.40
2023-03-29T20:41:48.656Z,99.20
2023-03-29T20:44:18.389Z,99.10
2023-03-29T20:46:54.303Z,99.10
2023-03-29T20:49:26.529Z,99.00
2023-03-29T20:51:58.590Z,98.90
2023-03-29T20:54:27.894Z,99.00
2023-03-29T20:56:56.037Z,98.90
2023-03-29T20:59:23.900Z,98.90
2023-03-29T21:01:52.006Z,99.00
2023-03-29T21:04:20.135Z,99.10
2023-03-29T21:06:49.586Z,99.10
2023-03-29T21:09:17.713Z,99.20
2023-03-29T21:11:46.923Z,99.40
2023-03-29T21:14:19.366Z,99.60
2023-03-29T21:16:47.302Z,99.60
2023-03-29T21:19:16.382Z,99.70
2023-03-29T21:21:44.874Z,99.80
2023-03-29T21:24:14.230Z,99.90
2023-03-29T21:26:42.323Z,99.90
2023-03-29T21:29:11.813Z,99.90
2023-03-29T21:31:40.076Z,99.90
2023-03-29T21:34:08.063Z,99.90
2023-03-29T21:36:36.312Z,99.90
2023-03-29T21:39:04.384Z,99.90
2023-03-29T21:41:32.232Z,99.90
2023-03-29T21:44:00.258Z,99.90
2023-03-29T21:46:29.475Z,99.90
2023-03-29T21:48:57.329Z,99.90
2023-03-29T21:51:25.138Z,99.90
2023-03-29T21:53:52.881Z,99.90
2023-03-29T21:56:22.416Z,99.90
2023-03-29T21:58:50.267Z,99.90
2023-03-29T22:01:18.125Z,99.90
2023-03-29T22:03:47.559Z,99.90
2023-03-29T22:06:15.996Z,99.90
2023-03-29T22:08:46.634Z,99.90
2023-03-29T22:11:16.190Z,99.90
2023-03-29T22:13:44.587Z,99.90
2023-03-29T22:16:16.659Z,99.90
2023-03-29T22:18:46.951Z,99.90
2023-03-29T22:21:18.310Z,99.90
2023-03-29T22:23:49.659Z,99.90
2023-03-29T22:26:19.625Z,99.90
2023-03-29T22:28:47.391Z,99.90
2023-03-29T22:31:17.339Z,99.90
2023-03-29T22:33:46.146Z,99.90
2023-03-29T22:36:17.987Z,99.90
2023-03-29T22:38:46.705Z,99.90
2023-03-29T22:41:15.804Z,99.90
2023-03-29T22:43:43.622Z,99.90
2023-03-29T22:46:13.269Z,99.90
2023-03-29T22:48:41.291Z,99.90
2023-03-29T22:51:09.082Z,99.90
2023-03-29T22:53:38.246Z,99.90
2023-03-29T22:56:07.374Z,99.90
2023-03-29T22:58:35.184Z,99.90
2023-03-29T23:01:03.487Z,99.90
2023-03-29T23:03:31.530Z,99.90
2023-03-29T23:06:02.229Z,99.90
2023-03-29T23:08:31.110Z,99.90
2023-03-29T23:11:00.937Z,99.90
2023-03-29T23:13:29.380Z,99.90
2023-03-29T23:16:00.104Z,99.90
2023-03-29T23:18:29.585Z,99.90
2023-03-29T23:21:00.126Z,99.90
2023-03-29T23:23:29.144Z,99.90
2023-03-29T23:25:57.862Z,99.90
2023-03-29T23:28:30.446Z,99.90
2023-03-29T23:31:00.959Z,99.90
2023-03-29T23:33:30.579Z,99.90
2023-03-29T23:35:58.439Z,99.90
2023-03-29T23:38:26.376Z,99.90
2023-03-29T23:40:58.635Z,99.90
2023-03-29T23:43:32.641Z,99.90
2023-03-29T23:46:02.041Z,99.90
2023-03-29T23:48:30.122Z,99.90
2023-03-29T23:50:58.101Z,99.90
2023-03-29T23:53:28.963Z,99.90
2023-03-29T23:55:58.171Z,99.90
2023-03-29T23:58:27.595Z,99.90
